createdAt,value
2022-09-06T00:01:24.710Z,100.00
2022-09-06T00:03:54.247Z,100.00
2022-09-06T00:06:25.159Z,100.00
2022-09-06T00:08:54.486Z,100.00
2022-09-06T00:11:24.294Z,100.00
2022-09-06T00:13:53.680Z,100.00
2022-09-06T00:16:30.141Z,100.00
2022-09-06T00:18:59.887Z,100.00
2022-09-06T00:21:34.679Z,100.00
2022-09-06T00:24:04.141Z,100.00
2022-09-06T00:26:33.532Z,100.00
2022-09-06T00:29:03.285Z,100.00
2022-09-06T00:31:32.813Z,100.00
2022-09-06T00:34:02.763Z,100.00
2022-09-06T00:36:37.431Z,100.00
2022-09-06T00:39:06.803Z,100.00
2022-09-06T00:41:36.195Z,100.00
2022-09-06T00:44:05.863Z,100.00
2022-09-06T00:46:36.284Z,100.00
2022-09-06T00:49:10.072Z,100.00
2022-09-06T00:51:42.211Z,100.00
2022-09-06T00:54:12.680Z,100.00
2022-09-06T00:56:46.366Z,100.00
2022-09-06T00:59:16.663Z,100.00
2022-09-06T01:09:10.491Z,100.00
2022-09-06T01:12:00.736Z,100.00
2022-09-06T01:14:46.981Z,100.00
2022-09-06T01:17:36.691Z,100.00
2022-09-06T01:20:12.209Z,100.00
2022-09-06T01:23:14.657Z,100.00
2022-09-06T01:26:18.356Z,100.00
2022-09-06T01:28:49.202Z,100.00
2022-09-06T01:31:42.040Z,100.00
2022-09-06T01:34:11.491Z,100.00
2022-09-06T01:37:08.844Z,100.00
2022-09-06T01:39:41.626Z,100.00
2022-09-06T01:42:33.383Z,100.00
2022-09-06T01:45:06.616Z,100.00
2022-09-06T01:47:54.541Z,100.00
2022-09-06T01:50:26.639Z,100.00
2022-09-06T01:53:02.415Z,100.00
2022-09-06T01:55:56.320Z,100.00
2022-09-06T01:58:54.277Z,100.00
2022-09-06T02:01:42.444Z,100.00
2022-09-06T02:04:23.330Z,100.00
2022-09-06T02:07:00.496Z,100.00
2022-09-06T02:09:35.020Z,100.00
2022-09-06T02:12:06.279Z,100.00
2022-09-06T02:15:11.611Z,100.00
2022-09-06T02:29:16.967Z,100.00
2022-09-06T02:31:48.460Z,100.00
2022-09-06T02:34:20.378Z,100.00
2022-09-06T02:36:50.220Z,100.00
2022-09-06T02:39:19.590Z,100.00
2022-09-06T02:41:49.938Z,100.00
2022-09-06T02:44:19.340Z,100.00
2022-09-06T02:46:48.651Z,100.00
2022-09-06T02:49:17.956Z,100.00
2022-09-06T02:51:47.385Z,100.00
2022-09-06T02:54:16.759Z,100.00
2022-09-06T02:56:50.178Z,100.00
2022-09-06T02:59:21.424Z,100.00
2022-09-06T03:01:50.766Z,100.00
2022-09-06T03:04:20.090Z,100.00
2022-09-06T03:06:49.432Z,100.00
2022-09-06T03:09:18.732Z,100.00
2022-09-06T03:11:48.070Z,100.00
2022-09-06T03:14:19.611Z,100.00
2022-09-06T03:16:49.092Z,100.00
2022-09-06T03:19:20.220Z,100.00
2022-09-06T03:21:49.590Z,100.00
2022-09-06T03:24:18.992Z,100.00
2022-09-06T03:26:48.329Z,100.00
2022-09-06T03:29:17.615Z,100.00
2022-09-06T03:31:46.967Z,100.00
2022-09-06T03:34:16.275Z,100.00
2022-09-06T03:36:45.650Z,100.00
2022-09-06T03:39:14.978Z,100.00
2022-09-06T03:41:47.756Z,100.00
2022-09-06T03:44:17.100Z,100.00
2022-09-06T03:46:46.460Z,100.00
2022-09-06T03:49:15.760Z,100.00
2022-09-06T03:51:45.102Z,100.00
2022-09-06T03:54:14.530Z,100.00
2022-09-06T03:56:43.891Z,100.00
2022-09-06T03:59:13.207Z,100.00
2022-09-06T04:01:42.635Z,100.00
2022-09-06T04:04:12.206Z,100.00
2022-09-06T04:06:41.665Z,100.00
2022-09-06T04:09:11.070Z,100.00
2022-09-06T04:11:42.908Z,100.00
2022-09-06T04:14:16.626Z,100.00
2022-09-06T04:16:46.173Z,100.00
2022-09-06T04:19:15.842Z,100.00
2022-09-06T04:21:45.217Z,100.00
2022-09-06T04:24:14.617Z,100.00
2022-09-06T04:26:47.025Z,100.00
2022-09-06T04:29:16.348Z,100.00
2022-09-06T04:31:45.938Z,100.00
2022-09-06T04:34:16.490Z,100.00
2022-09-06T04:36:48.424Z,100.00
2022-09-06T04:39:18.418Z,100.00
2022-09-06T04:41:47.888Z,100.00
2022-09-06T04:44:17.219Z,100.00
2022-09-06T04:46:46.572Z,100.00
2022-09-06T04:49:15.898Z,100.00
2022-09-06T04:51:45.257Z,100.00
2022-09-06T04:54:14.620Z,100.00
2022-09-06T04:56:43.922Z,100.00
2022-09-06T04:59:13.280Z,100.00
2022-09-06T05:01:42.585Z,100.00
2022-09-06T05:04:11.927Z,100.00
2022-09-06T05:06:42.996Z,100.00
2022-09-06T05:09:12.607Z,100.00
2022-09-06T05:11:41.928Z,100.00
2022-09-06T05:14:11.335Z,100.00
2022-09-06T05:16:40.695Z,100.00
2022-09-06T05:19:10.053Z,100.00
2022-09-06T05:21:40.015Z,100.00
2022-09-06T05:24:10.078Z,100.00
2022-09-06T05:26:42.404Z,100.00
2022-09-06T05:29:11.774Z,100.00
2022-09-06T05:31:44.198Z,100.00
2022-09-06T05:34:15.163Z,100.00
2022-09-06T05:36:46.214Z,100.00
2022-09-06T05:39:15.662Z,100.00
2022-09-06T05:41:44.976Z,100.00
2022-09-06T05:44:16.912Z,100.00
2022-09-06T05:46:47.918Z,100.00
2022-09-06T05:49:17.267Z,100.00
2022-09-06T05:51:46.624Z,100.00
2022-09-06T05:54:16.012Z,100.00
2022-09-06T05:56:45.304Z,100.00
2022-09-06T05:59:14.629Z,100.00
2022-09-06T06:01:55.277Z,100.00
2022-09-06T06:04:25.073Z,100.00
2022-09-06T06:06:54.394Z,100.00
2022-09-06T06:09:23.899Z,100.00
2022-09-06T06:11:53.232Z,100.00
2022-09-06T06:14:22.536Z,100.00
2022-09-06T06:16:52.041Z,100.00
2022-09-06T06:19:21.511Z,100.00
2022-09-06T06:21:51.014Z,100.00
2022-09-06T06:24:20.345Z,100.00
2022-09-06T06:26:49.683Z,100.00
2022-09-06T06:29:19.637Z,100.00
2022-09-06T06:31:49.076Z,100.00
2022-09-06T06:34:21.903Z,100.00
2022-09-06T06:36:51.460Z,100.00
2022-09-06T06:39:20.771Z,100.00
2022-09-06T06:41:50.881Z,100.00
2022-09-06T06:44:33.588Z,100.00
2022-09-06T06:47:02.895Z,100.00
2022-09-06T06:49:32.829Z,100.00
2022-09-06T06:52:02.229Z,100.00
2022-09-06T06:54:31.769Z,100.00
2022-09-06T06:57:01.162Z,100.00
2022-09-06T06:59:30.497Z,100.00
2022-09-06T07:02:00.006Z,100.00
2022-09-06T07:04:29.653Z,100.00
2022-09-06T07:12:38.674Z,100.00
2022-09-06T07:15:08.506Z,100.00
2022-09-06T07:17:37.823Z,100.00
2022-09-06T07:20:15.254Z,100.00
2022-09-06T07:22:45.188Z,100.00
2022-09-06T07:25:20.983Z,100.00
2022-09-06T07:27:50.759Z,100.00
2022-09-06T07:30:21.101Z,100.00
2022-09-06T07:32:50.891Z,100.00
2022-09-06T07:35:20.585Z,100.00
2022-09-06T07:38:01.440Z,100.00
2022-09-06T07:40:32.790Z,100.00
2022-09-06T07:43:02.721Z,100.00
2022-09-06T07:45:32.121Z,100.00
2022-09-06T07:48:01.702Z,100.00
2022-09-06T07:50:48.896Z,100.00
2022-09-06T07:53:26.322Z,100.00
2022-09-06T07:55:59.842Z,100.00
2022-09-06T07:58:29.586Z,100.00
2022-09-06T08:01:21.265Z,100.00
2022-09-06T08:03:50.791Z,98.14
2022-09-06T08:06:20.408Z,100.00
2022-09-06T08:11:28.380Z,98.51
2022-09-06T08:14:00.022Z,97.53
2022-09-06T08:16:31.940Z,95.18
2022-09-06T08:19:02.438Z,95.72
2022-09-06T08:21:35.203Z,98.55
2022-09-06T08:24:07.031Z,95.79
2022-09-06T08:26:39.448Z,93.16
2022-09-06T08:29:10.933Z,92.92
2022-09-06T08:31:43.542Z,90.37
2022-09-06T08:34:14.392Z,88.31
2022-09-06T08:36:45.453Z,89.04
2022-09-06T08:39:14.923Z,88.58
2022-09-06T08:41:55.826Z,86.98
2022-09-06T08:47:24.778Z,86.32
2022-09-06T08:49:58.093Z,86.49
2022-09-06T08:53:16.814Z,84.84
2022-09-06T08:55:48.402Z,81.47
2022-09-06T08:58:35.501Z,81.85
2022-09-06T09:01:23.223Z,79.55
2022-09-06T09:03:55.743Z,75.82
2022-09-06T09:06:27.288Z,77.26
2022-09-06T09:09:08.971Z,77.04
2022-09-06T09:11:39.071Z,72.99
2022-09-06T09:14:15.145Z,70.82
2022-09-06T09:16:44.743Z,67.90
2022-09-06T09:19:14.275Z,66.63
2022-09-06T09:21:43.810Z,64.66
2022-09-06T09:24:19.654Z,65.07
2022-09-06T09:27:05.268Z,63.33
2022-09-06T09:29:36.498Z,64.57
2022-09-06T09:32:06.168Z,62.51
2022-09-06T09:34:38.112Z,62.79
2022-09-06T09:40:31.461Z,59.72
2022-09-06T09:43:12.687Z,60.53
2022-09-06T09:45:43.196Z,60.73
2022-09-06T09:48:27.155Z,60.08
2022-09-06T09:50:58.119Z,58.39
2022-09-06T09:53:27.523Z,58.99
2022-09-06T09:56:01.745Z,58.77
2022-09-06T09:58:38.244Z,57.93
2022-09-06T10:01:33.777Z,57.23
2022-09-06T10:07:10.835Z,56.24
2022-09-06T10:09:43.939Z,55.21
2022-09-06T10:12:20.064Z,54.70
2022-09-06T10:14:51.778Z,53.47
2022-09-06T10:17:34.841Z,51.89
2022-09-06T10:20:13.131Z,50.97
2022-09-06T10:23:02.999Z,50.50
2022-09-06T10:26:08.139Z,51.21
2022-09-06T10:28:41.977Z,51.25
2022-09-06T10:31:30.292Z,51.99
2022-09-06T10:34:27.899Z,50.87
2022-09-06T10:37:23.501Z,50.21
2022-09-06T10:40:00.896Z,49.87
2022-09-06T10:42:52.787Z,50.92
2022-09-06T10:45:37.287Z,52.28
2022-09-06T10:48:18.620Z,50.89
2022-09-06T10:50:52.272Z,50.63
2022-09-06T10:53:24.633Z,48.84
2022-09-06T10:56:07.012Z,50.02
2022-09-06T11:01:44.256Z,50.02
2022-09-06T11:04:21.802Z,51.62
2022-09-06T11:06:55.445Z,50.90
2022-09-06T11:09:48.933Z,51.04
2022-09-06T11:12:42.569Z,50.69
2022-09-06T11:15:15.916Z,50.76
2022-09-06T11:18:14.368Z,51.06
2022-09-06T11:21:27.605Z,50.15
2022-09-06T11:24:18.322Z,52.10
2022-09-06T11:27:09.099Z,51.70
2022-09-06T11:29:44.418Z,51.33
2022-09-06T11:32:50.183Z,50.59
2022-09-06T11:35:32.292Z,51.73
2022-09-06T11:38:07.870Z,50.26
2022-09-06T11:40:46.139Z,50.52
2022-09-06T11:43:19.971Z,49.55
2022-09-06T11:45:54.836Z,49.24
2022-09-06T11:48:29.033Z,49.24
2022-09-06T11:51:13.647Z,49.22
2022-09-06T11:53:52.394Z,49.61
2022-09-06T11:56:42.176Z,50.48
2022-09-06T11:59:20.413Z,50.24
2022-09-06T12:02:35.253Z,50.85
2022-09-06T12:05:07.410Z,49.96
2022-09-06T12:07:42.948Z,51.09
2022-09-06T12:10:34.048Z,50.09
2022-09-06T12:13:03.492Z,48.89
2022-09-06T12:15:45.549Z,48.26
2022-09-06T12:18:49.823Z,46.83
2022-09-06T12:21:36.191Z,48.82
2022-09-06T12:24:07.539Z,48.91
2022-09-06T12:26:55.937Z,48.20
2022-09-06T12:29:29.842Z,48.56
2022-09-06T12:32:03.944Z,50.00
2022-09-06T12:34:36.413Z,48.48
2022-09-06T12:37:11.149Z,48.86
2022-09-06T12:39:40.568Z,47.94
2022-09-06T12:42:19.519Z,46.34
2022-09-06T12:44:52.362Z,47.81
2022-09-06T12:47:40.632Z,46.92
2022-09-06T12:50:11.288Z,47.62
2022-09-06T12:52:50.758Z,45.82
2022-09-06T12:55:25.267Z,46.68
2022-09-06T12:58:00.234Z,46.62
2022-09-06T13:00:54.740Z,45.93
2022-09-06T13:03:31.178Z,47.05
2022-09-06T13:06:04.779Z,47.81
2022-09-06T13:08:48.263Z,47.01
2022-09-06T13:11:23.630Z,45.69
2022-09-06T13:13:56.484Z,45.61
2022-09-06T13:16:33.205Z,43.73
2022-09-06T13:19:43.509Z,44.25
2022-09-06T13:22:13.600Z,44.88
2022-09-06T13:24:49.148Z,43.66
2022-09-06T13:27:33.811Z,43.15
2022-09-06T13:30:04.242Z,41.97
2022-09-06T13:32:33.854Z,41.43
2022-09-06T13:35:03.652Z,41.43
2022-09-06T13:37:39.508Z,40.35
2022-09-06T13:41:09.769Z,39.32
2022-09-06T13:43:42.563Z,38.64
2022-09-06T13:46:13.785Z,40.01
2022-09-06T13:48:44.689Z,39.56
2022-09-06T13:51:14.737Z,38.87
2022-09-06T13:53:47.030Z,38.79
2022-09-06T13:56:16.928Z,38.37
2022-09-06T13:58:47.255Z,38.63
2022-09-06T14:01:16.992Z,38.58
2022-09-06T14:03:46.495Z,39.23
2022-09-06T14:06:15.793Z,39.90
2022-09-06T14:11:35.414Z,39.76
2022-09-06T14:14:04.791Z,39.92
2022-09-06T14:16:34.652Z,39.79
2022-09-06T14:19:04.299Z,40.57
2022-09-06T14:21:34.139Z,40.10
2022-09-06T14:24:04.660Z,40.02
2022-09-06T14:26:35.404Z,40.28
2022-09-06T14:29:04.890Z,39.65
2022-09-06T14:31:35.191Z,39.96
2022-09-06T14:34:05.348Z,40.01
2022-09-06T14:36:36.135Z,39.57
2022-09-06T14:39:06.426Z,39.58
2022-09-06T14:41:35.888Z,38.62
2022-09-06T14:44:05.641Z,38.88
2022-09-06T14:46:35.043Z,37.73
2022-09-06T14:49:08.010Z,37.70
2022-09-06T14:51:38.631Z,38.53
2022-09-06T14:54:13.721Z,39.01
2022-09-06T14:56:44.622Z,39.73
2022-09-06T14:59:14.487Z,40.43
2022-09-06T15:01:44.435Z,40.02
2022-09-06T15:04:14.623Z,40.56
2022-09-06T15:06:47.206Z,40.64
2022-09-06T15:09:18.486Z,40.98
2022-09-06T15:11:51.784Z,41.41
2022-09-06T15:14:24.641Z,41.46
2022-09-06T15:16:58.036Z,41.60
2022-09-06T15:19:33.934Z,42.15
2022-09-06T15:22:03.486Z,42.91
2022-09-06T15:24:33.701Z,43.01
2022-09-06T15:27:03.858Z,43.58
2022-09-06T15:29:33.230Z,43.68
2022-09-06T15:32:02.619Z,43.53
2022-09-06T15:34:31.970Z,43.95
2022-09-06T15:37:01.251Z,44.58
2022-09-06T15:39:30.679Z,46.05
2022-09-06T15:42:00.051Z,44.97
2022-09-06T15:44:30.752Z,44.87
2022-09-06T15:47:00.947Z,44.56
2022-09-06T15:49:33.726Z,44.99
2022-09-06T15:52:06.083Z,44.06
2022-09-06T15:54:47.902Z,44.20
2022-09-06T15:57:18.605Z,43.89
2022-09-06T15:59:48.535Z,43.17
2022-09-06T16:02:17.912Z,43.50
2022-09-06T16:04:48.637Z,43.04
2022-09-06T16:07:18.319Z,42.64
2022-09-06T16:09:48.035Z,43.53
2022-09-06T16:12:17.377Z,43.24
2022-09-06T16:14:46.688Z,42.88
2022-09-06T16:17:15.991Z,43.94
2022-09-06T16:19:45.717Z,44.11
2022-09-06T16:22:15.091Z,43.62
2022-09-06T16:24:44.958Z,43.92
2022-09-06T16:27:15.128Z,44.09
2022-09-06T16:29:45.341Z,44.01
2022-09-06T16:32:15.188Z,45.71
2022-09-06T16:34:44.596Z,47.70
2022-09-06T16:37:14.401Z,48.65
2022-09-06T16:39:44.466Z,49.30
2022-09-06T16:42:14.847Z,49.54
2022-09-06T16:44:44.454Z,49.82
2022-09-06T16:47:16.623Z,50.28
2022-09-06T16:49:46.312Z,50.74
2022-09-06T16:52:15.686Z,52.94
2022-09-06T16:54:45.170Z,53.17
2022-09-06T16:57:14.883Z,54.79
2022-09-06T16:59:46.721Z,54.22
2022-09-06T17:02:15.985Z,54.24
2022-09-06T17:04:45.409Z,54.46
2022-09-06T17:07:14.793Z,54.70
2022-09-06T17:09:47.151Z,54.63
2022-09-06T17:12:16.710Z,55.81
2022-09-06T17:14:46.091Z,54.69
2022-09-06T17:17:14.601Z,54.64
2022-09-06T17:19:44.478Z,54.91
2022-09-06T17:22:15.493Z,55.57
2022-09-06T17:24:44.879Z,54.47
2022-09-06T17:27:17.328Z,54.50
2022-09-06T17:29:46.683Z,55.02
2022-09-06T17:32:16.002Z,56.23
2022-09-06T17:34:45.356Z,56.42
2022-09-06T17:37:14.687Z,57.42
2022-09-06T17:39:46.988Z,57.81
2022-09-06T17:42:16.864Z,58.51
2022-09-06T17:44:46.619Z,58.94
2022-09-06T17:47:16.269Z,58.86
2022-09-06T17:49:45.923Z,59.39
2022-09-06T17:52:15.304Z,59.47
2022-09-06T17:54:44.704Z,59.63
2022-09-06T17:57:14.311Z,59.58
2022-09-06T17:59:43.674Z,59.36
2022-09-06T18:02:13.076Z,60.31
2022-09-06T18:04:42.544Z,60.82
2022-09-06T18:07:11.860Z,60.90
2022-09-06T18:09:41.723Z,60.71
2022-09-06T18:12:11.420Z,60.30
2022-09-06T18:14:41.493Z,60.59
2022-09-06T18:17:12.742Z,61.00
2022-09-06T18:19:42.754Z,61.31
2022-09-06T18:22:12.190Z,62.03
2022-09-06T18:24:43.357Z,62.51
2022-09-06T18:27:12.703Z,62.44
2022-09-06T18:29:42.106Z,63.39
2022-09-06T18:32:13.674Z,63.66
2022-09-06T18:34:42.989Z,64.13
2022-09-06T18:37:12.363Z,64.34
2022-09-06T18:39:42.521Z,65.18
2022-09-06T18:42:12.046Z,65.58
2022-09-06T18:44:41.766Z,66.24
2022-09-06T18:47:12.399Z,66.82
2022-09-06T18:49:44.318Z,67.68
2022-09-06T18:52:13.984Z,68.33
2022-09-06T18:54:43.789Z,69.00
2022-09-06T18:57:14.702Z,69.72
2022-09-06T18:59:44.375Z,70.64
2022-09-06T19:02:13.955Z,71.63
2022-09-06T19:04:43.437Z,72.05
2022-09-06T19:07:12.831Z,73.43
2022-09-06T19:09:42.163Z,73.76
2022-09-06T19:12:12.166Z,74.25
2022-09-06T19:14:42.671Z,74.85
2022-09-06T19:17:12.320Z,75.48
2022-09-06T19:19:41.640Z,75.64
2022-09-06T19:22:11.193Z,76.18
2022-09-06T19:24:40.596Z,77.20
2022-09-06T19:27:10.650Z,77.67
2022-09-06T19:29:39.967Z,78.76
2022-09-06T19:32:12.358Z,79.00
2022-09-06T19:34:41.684Z,80.68
2022-09-06T19:37:14.092Z,80.27
2022-09-06T19:39:43.421Z,81.55
2022-09-06T19:42:12.787Z,81.65
2022-09-06T19:44:42.254Z,81.20
2022-09-06T19:47:12.450Z,80.61
2022-09-06T19:49:42.555Z,81.32
2022-09-06T19:52:12.199Z,81.36
2022-09-06T19:54:42.696Z,81.17
2022-09-06T19:57:12.044Z,81.48
2022-09-06T19:59:43.736Z,80.86
2022-09-06T20:02:13.446Z,81.13
2022-09-06T20:04:42.841Z,81.13
2022-09-06T20:07:12.178Z,81.52
2022-09-06T20:09:42.712Z,82.04
2022-09-06T20:12:12.269Z,82.09
2022-09-06T20:14:42.079Z,83.18
2022-09-06T20:17:32.941Z,83.64
2022-09-06T20:20:03.441Z,84.38
2022-09-06T20:22:32.864Z,85.02
2022-09-06T20:25:02.491Z,85.19
2022-09-06T20:27:33.459Z,85.52
2022-09-06T20:30:03.119Z,86.48
2022-09-06T20:32:33.340Z,86.65
2022-09-06T20:35:02.896Z,86.85
2022-09-06T20:37:32.300Z,86.72
2022-09-06T20:40:01.790Z,85.92
2022-09-06T20:42:31.258Z,86.36
2022-09-06T20:45:00.638Z,85.16
2022-09-06T20:47:31.587Z,85.77
2022-09-06T20:50:00.899Z,85.83
2022-09-06T20:52:30.424Z,85.85
2022-09-06T20:55:00.115Z,86.21
2022-09-06T20:57:29.467Z,86.60
2022-09-06T20:59:58.823Z,86.76
2022-09-06T21:02:28.417Z,86.84
2022-09-06T21:04:59.581Z,86.76
2022-09-06T21:07:30.120Z,87.07
2022-09-06T21:09:59.592Z,88.22
2022-09-06T21:12:29.010Z,89.00
2022-09-06T21:14:58.387Z,88.24
2022-09-06T21:17:27.720Z,89.09
2022-09-06T21:19:57.107Z,88.97
2022-09-06T21:22:26.628Z,89.01
2022-09-06T21:24:56.057Z,88.55
2022-09-06T21:27:25.511Z,88.36
2022-09-06T21:29:54.902Z,88.67
2022-09-06T21:32:24.339Z,89.44
2022-09-06T21:34:53.649Z,88.48
2022-09-06T21:37:22.983Z,88.61
2022-09-06T21:39:52.354Z,88.49
2022-09-06T21:42:21.722Z,88.44
2022-09-06T21:44:51.007Z,88.67
2022-09-06T21:47:20.393Z,89.19
2022-09-06T21:49:49.705Z,88.84
2022-09-06T21:52:19.039Z,88.84
2022-09-06T21:54:48.485Z,88.73
2022-09-06T21:57:18.074Z,89.74
2022-09-06T21:59:47.417Z,90.71
2022-09-06T22:02:17.049Z,90.94
2022-09-06T22:04:46.652Z,91.06
2022-09-06T22:07:15.988Z,90.87
2022-09-06T22:09:45.295Z,90.67
2022-09-06T22:12:14.707Z,89.86
2022-09-06T22:14:44.534Z,89.81
2022-09-06T22:17:13.878Z,89.72
2022-09-06T22:19:43.221Z,91.88
2022-09-06T22:22:12.690Z,92.77
2022-09-06T22:24:42.363Z,92.93
2022-09-06T22:27:11.812Z,92.29
2022-09-06T22:29:41.226Z,92.82
2022-09-06T22:32:10.575Z,92.19
2022-09-06T22:34:42.702Z,92.64
2022-09-06T22:37:12.099Z,91.15
2022-09-06T22:39:44.367Z,90.80
2022-09-06T22:42:13.835Z,89.79
2022-09-06T22:44:43.155Z,90.12
2022-09-06T22:47:12.486Z,90.48
2022-09-06T22:49:41.839Z,92.32
2022-09-06T22:52:12.718Z,94.39
2022-09-06T22:54:42.667Z,100.00
2022-09-06T22:57:12.644Z,100.00
2022-09-06T22:59:42.133Z,100.00
2022-09-06T23:02:11.617Z,100.00
2022-09-06T23:04:40.995Z,100.00
2022-09-06T23:07:10.404Z,100.00
2022-09-06T23:09:39.759Z,100.00
2022-09-06T23:12:09.239Z,100.00
2022-09-06T23:14:38.535Z,100.00
2022-09-06T23:17:07.906Z,100.00
2022-09-06T23:19:37.363Z,100.00
2022-09-06T23:22:06.700Z,100.00
2022-09-06T23:24:36.341Z,100.00
2022-09-06T23:27:06.250Z,100.00
2022-09-06T23:29:35.599Z,100.00
2022-09-06T23:32:05.042Z,100.00
2022-09-06T23:34:34.397Z,100.00
2022-09-06T23:37:03.797Z,100.00
2022-09-06T23:39:33.189Z,100.00
2022-09-06T23:42:02.539Z,100.00
2022-09-06T23:44:31.904Z,100.00
2022-09-06T23:47:01.302Z,100.00
2022-09-06T23:49:30.748Z,100.00
2022-09-06T23:52:00.135Z,100.00
2022-09-06T23:54:29.516Z,100.00
2022-09-06T23:56:58.838Z,100.00
2022-09-06T23:59:28.173Z,100.00
